Time;durP1;ratioP1;P1;durP2;ratioP2;P2;SDS_P1;SDS_P2;PMS_P1;PMS_P2;Temp;Humidity;BMP_temperature;BMP_pressure;BME280_temperature;BME280_humidity;BME280_pressure;Samples;Min_cycle;Max_cycle;Signal;HPM_P1;HPM_P2
2024/01/23 00:02:04;;;;;;;3.83;1.20;;;;;;;;;;4957461;28;20199;-86
2024/01/23 00:05:08;;;;;;;2.97;1.33;;;;;;;;;;4980031;28;20609;-86
2024/01/23 00:08:13;;;;;;;1.97;1.00;;;;;;;;;;4957665;28;20191;-87
2024/01/23 00:11:18;;;;;;;2.10;1.30;;;;;;;;;;4968561;28;20531;-86
2024/01/23 00:14:22;;;;;;;2.57;1.20;;;;;;;;;;4945394;28;20194;-87
2024/01/23 00:17:26;;;;;;;1.20;1.07;;;;;;;;;;4956272;28;20179;-87
2024/01/23 00:20:34;;;;;;;4.17;1.50;;;;;;;;;;4945710;28;20579;-86
2024/01/23 00:23:38;;;;;;;2.73;1.70;;;;;;;;;;4956555;28;20218;-87
2024/01/23 00:26:42;;;;;;;1.50;0.90;;;;;;;;;;4955719;28;20223;-86
2024/01/23 00:29:47;;;;;;;2.17;1.03;;;;;;;;;;4967444;28;20632;-86
2024/01/23 00:32:51;;;;;;;5.00;1.20;;;;;;;;;;4967402;28;20186;-86
2024/01/23 00:35:55;;;;;;;1.77;1.00;;;;;;;;;;4956015;28;20240;-86
2024/01/23 00:38:59;;;;;;;2.17;1.27;;;;;;;;;;4967833;28;20541;-86
2024/01/23 00:42:06;;;;;;;2.13;1.20;;;;;;;;;;4945355;28;20526;-86
2024/01/23 00:45:10;;;;;;;3.30;1.70;;;;;;;;;;4967074;28;20218;-86
2024/01/23 00:48:15;;;;;;;4.20;1.40;;;;;;;;;;4945343;28;20183;-86
2024/01/23 00:51:19;;;;;;;3.77;1.40;;;;;;;;;;4956066;28;20183;-86
2024/01/23 00:54:23;;;;;;;1.97;1.20;;;;;;;;;;4966655;28;20195;-86
2024/01/23 00:57:28;;;;;;;5.50;1.50;;;;;;;;;;4966122;28;20179;-86
2024/01/23 01:00:32;;;;;;;2.40;1.30;;;;;;;;;;4966929;28;20217;-86
2024/01/23 01:03:36;;;;;;;3.07;1.63;;;;;;;;;;4966978;28;20191;-86
2024/01/23 01:06:40;;;;;;;4.47;1.70;;;;;;;;;;4978590;28;20218;-86
2024/01/23 01:09:44;;;;;;;3.93;1.10;;;;;;;;;;4966577;28;20191;-86
2024/01/23 01:12:49;;;;;;;3.27;1.20;;;;;;;;;;4956287;28;20190;-86
2024/01/23 01:15:53;;;;;;;4.17;1.20;;;;;;;;;;4944901;28;20234;-86
2024/01/23 01:18:58;;;;;;;1.87;1.03;;;;;;;;;;4966634;28;20183;-86
2024/01/23 01:22:03;;;;;;;2.13;1.07;;;;;;;;;;4955297;28;20680;-86
2024/01/23 01:25:06;;;;;;;4.07;1.13;;;;;;;;;;4977461;28;20548;-86
2024/01/23 01:28:12;;;;;;;3.17;1.00;;;;;;;;;;4955646;28;20549;-86
2024/01/23 01:31:16;;;;;;;2.60;0.80;;;;;;;;;;4966477;28;20191;-87
2024/01/23 01:34:20;;;;;;;3.83;1.00;;;;;;;;;;4955714;28;20187;-86
2024/01/23 01:37:25;;;;;;;2.90;0.90;;;;;;;;;;4966267;28;20226;-86
2024/01/23 01:40:30;;;;;;;2.07;0.70;;;;;;;;;;4944393;28;20190;-86
2024/01/23 01:43:37;;;;;;;2.13;0.80;;;;;;;;;;4966373;28;20556;-86
2024/01/23 01:46:43;;;;;;;2.70;0.80;;;;;;;;;;4966042;28;20218;-86
2024/01/23 01:49:48;;;;;;;1.23;0.73;;;;;;;;;;4977695;28;20183;-86
2024/01/23 01:52:53;;;;;;;1.60;1.00;;;;;;;;;;4955422;28;20186;-86
2024/01/23 01:55:58;;;;;;;1.63;0.77;;;;;;;;;;4965845;28;20230;-86
2024/01/23 01:59:02;;;;;;;3.13;0.90;;;;;;;;;;4976738;28;20191;-86
2024/01/23 02:02:07;;;;;;;2.80;0.80;;;;;;;;;;4965845;28;20189;-86
2024/01/23 02:05:11;;;;;;;1.60;0.90;;;;;;;;;;4965649;28;20599;-86
2024/01/23 02:08:16;;;;;;;1.83;0.87;;;;;;;;;;4953698;28;20186;-87
2024/01/23 02:11:21;;;;;;;3.63;1.20;;;;;;;;;;4943733;28;20191;-86
2024/01/23 02:14:27;;;;;;;3.33;1.20;;;;;;;;;;4976924;28;20194;-86
2024/01/23 02:17:31;;;;;;;1.57;0.80;;;;;;;;;;4966232;28;20218;-86
2024/01/23 02:20:35;;;;;;;2.17;0.70;;;;;;;;;;4965258;28;20199;-86
2024/01/23 02:23:41;;;;;;;2.27;0.70;;;;;;;;;;4954390;28;20214;-86
2024/01/23 02:26:45;;;;;;;3.70;0.77;;;;;;;;;;4942982;28;20222;-86
2024/01/23 02:29:51;;;;;;;3.83;0.80;;;;;;;;;;4943687;28;20179;-86
2024/01/23 02:32:55;;;;;;;3.33;1.00;;;;;;;;;;4977629;28;20535;-87
2024/01/23 02:35:59;;;;;;;1.23;0.67;;;;;;;;;;4953920;28;20226;-87
2024/01/23 02:39:04;;;;;;;3.20;0.90;;;;;;;;;;4965338;28;20625;-86
2024/01/23 02:42:10;;;;;;;3.70;1.10;;;;;;;;;;4965750;28;20182;-86
2024/01/23 02:45:15;;;;;;;2.10;1.00;;;;;;;;;;4953690;28;20696;-87
2024/01/23 02:48:19;;;;;;;3.00;0.90;;;;;;;;;;4954453;28;20183;-87
2024/01/23 02:51:23;;;;;;;1.97;0.80;;;;;;;;;;4965053;28;20191;-86
2024/01/23 02:54:27;;;;;;;1.33;0.87;;;;;;;;;;4943211;28;20187;-86
2024/01/23 02:57:32;;;;;;;0.90;0.70;;;;;;;;;;4965102;28;20214;-85
2024/01/23 03:00:38;;;;;;;2.33;0.87;;;;;;;;;;4976806;28;20191;-86
2024/01/23 03:03:43;;;;;;;4.80;1.40;;;;;;;;;;4967194;28;20191;-86
2024/01/23 03:06:47;;;;;;;3.23;0.87;;;;;;;;;;4943297;28;20218;-86
2024/01/23 03:09:52;;;;;;;2.27;0.90;;;;;;;;;;4954773;28;20191;-87
2024/01/23 03:12:57;;;;;;;5.10;1.43;;;;;;;;;;4955030;28;20541;-87
2024/01/23 03:16:05;;;;;;;3.60;1.23;;;;;;;;;;4954254;28;20597;-87
2024/01/23 03:19:09;;;;;;;3.27;1.03;;;;;;;;;;4966138;28;20583;-86
2024/01/23 03:22:13;;;;;;;3.87;1.03;;;;;;;;;;4936889;28;20218;-87
2024/01/23 03:25:19;;;;;;;2.67;1.37;;;;;;;;;;4959150;28;20218;-87
2024/01/23 03:28:23;;;;;;;4.50;1.17;;;;;;;;;;4958222;28;20191;-87
2024/01/23 03:31:29;;;;;;;3.53;1.00;;;;;;;;;;4958349;28;20183;-87
2024/01/23 03:34:33;;;;;;;4.80;1.00;;;;;;;;;;4958140;28;20187;-86
2024/01/23 03:37:37;;;;;;;2.70;1.20;;;;;;;;;;4957513;28;20219;-86
2024/01/23 03:40:42;;;;;;;3.27;1.30;;;;;;;;;;4969184;28;20632;-86
2024/01/23 03:43:46;;;;;;;3.70;0.80;;;;;;;;;;4969099;28;20191;-86
2024/01/23 03:46:51;;;;;;;5.67;0.90;;;;;;;;;;4958749;28;20218;-85
2024/01/23 03:49:55;;;;;;;2.00;0.90;;;;;;;;;;4961859;28;20195;-86
2024/01/23 03:52:59;;;;;;;2.07;1.20;;;;;;;;;;4976327;28;20191;-86
2024/01/23 03:56:04;;;;;;;3.50;0.90;;;;;;;;;;4965452;28;20214;-86
2024/01/23 03:59:09;;;;;;;3.10;1.33;;;;;;;;;;4965265;28;20187;-86
2024/01/23 04:02:13;;;;;;;1.53;1.00;;;;;;;;;;4977193;28;20187;-86
2024/01/23 04:05:17;;;;;;;4.03;1.03;;;;;;;;;;4966633;28;20222;-86
2024/01/23 04:08:21;;;;;;;5.97;1.20;;;;;;;;;;4977831;28;20187;-86
2024/01/23 04:11:26;;;;;;;2.03;1.13;;;;;;;;;;4954717;28;20182;-86
2024/01/23 04:14:29;;;;;;;2.83;0.87;;;;;;;;;;4965094;28;20187;-86
2024/01/23 04:17:34;;;;;;;1.73;1.10;;;;;;;;;;4976088;28;20215;-86
2024/01/23 04:20:40;;;;;;;3.00;1.10;;;;;;;;;;4964831;28;20628;-86
2024/01/23 04:23:44;;;;;;;2.90;1.00;;;;;;;;;;4965658;28;20203;-86
2024/01/23 04:26:48;;;;;;;6.00;1.47;;;;;;;;;;4964419;28;20218;-86
2024/01/23 04:29:53;;;;;;;4.17;1.20;;;;;;;;;;4975818;28;20183;-86
2024/01/23 04:32:57;;;;;;;2.73;1.17;;;;;;;;;;4964089;28;20186;-86
2024/01/23 04:36:01;;;;;;;3.60;0.90;;;;;;;;;;4974957;28;20219;-87
2024/01/23 04:39:05;;;;;;;6.27;1.13;;;;;;;;;;4963624;28;20183;-86
2024/01/23 04:42:10;;;;;;;4.80;1.10;;;;;;;;;;4963052;28;20202;-86
2024/01/23 04:45:15;;;;;;;3.73;0.90;;;;;;;;;;4973768;28;20588;-86
2024/01/23 04:48:19;;;;;;;2.50;0.90;;;;;;;;;;4962982;28;20629;-86
2024/01/23 04:51:23;;;;;;;4.13;1.30;;;;;;;;;;4962425;28;20191;-86
2024/01/23 04:54:27;;;;;;;4.17;1.10;;;;;;;;;;4972628;28;20187;-86
2024/01/23 04:57:32;;;;;;;4.40;1.10;;;;;;;;;;4972563;28;20214;-87
2024/01/23 05:00:37;;;;;;;4.63;1.70;;;;;;;;;;4961143;28;20187;-86
2024/01/23 05:03:42;;;;;;;4.83;1.00;;;;;;;;;;4961212;28;20191;-86
2024/01/23 05:06:46;;;;;;;5.43;1.33;;;;;;;;;;4984180;28;20222;-87
2024/01/23 05:09:50;;;;;;;4.63;1.00;;;;;;;;;;4950114;28;20191;-86
2024/01/23 05:12:54;;;;;;;5.10;1.10;;;;;;;;;;4972317;28;20202;-86
2024/01/23 05:15:59;;;;;;;5.87;1.00;;;;;;;;;;4982689;28;20227;-87
2024/01/23 05:19:03;;;;;;;4.93;1.20;;;;;;;;;;4972024;28;20179;-86
2024/01/23 05:22:08;;;;;;;6.83;1.10;;;;;;;;;;4949828;28;20210;-86
2024/01/23 05:25:12;;;;;;;5.20;1.33;;;;;;;;;;4960183;28;20226;-86
2024/01/23 05:28:16;;;;;;;5.03;1.20;;;;;;;;;;4959520;28;20624;-87
2024/01/23 05:31:20;;;;;;;6.13;1.43;;;;;;;;;;4959463;28;20186;-87
2024/01/23 05:34:25;;;;;;;4.70;1.43;;;;;;;;;;4948829;28;20209;-87
2024/01/23 05:37:30;;;;;;;7.13;1.13;;;;;;;;;;4970588;28;20219;-87
2024/01/23 05:40:34;;;;;;;4.07;1.30;;;;;;;;;;4958824;28;20629;-87
2024/01/23 05:43:39;;;;;;;9.70;1.20;;;;;;;;;;4958544;28;20186;-87
2024/01/23 05:46:43;;;;;;;2.37;1.03;;;;;;;;;;4958020;28;20595;-87
2024/01/23 05:49:47;;;;;;;4.00;1.30;;;;;;;;;;4969589;28;20187;-88
2024/01/23 05:52:53;;;;;;;7.70;1.77;;;;;;;;;;4969028;28;20548;-87
2024/01/23 05:55:58;;;;;;;4.60;1.40;;;;;;;;;;4969039;28;20222;-87
2024/01/23 05:59:03;;;;;;;9.50;1.67;;;;;;;;;;4968713;28;20175;-86
2024/01/23 06:02:40;;;;;;;5.20;1.20;;;;;;;;;;4935647;28;20664;-87
2024/01/23 06:05:44;;;;;;;4.67;1.23;;;;;;;;;;4980385;28;20565;-86
2024/01/23 06:08:48;;;;;;;6.03;1.30;;;;;;;;;;4957828;28;20187;-87
2024/01/23 06:11:52;;;;;;;5.43;1.30;;;;;;;;;;4969118;28;20649;-86
2024/01/23 06:14:58;;;;;;;6.30;1.03;;;;;;;;;;4968155;28;20652;-86
2024/01/23 06:18:03;;;;;;;5.83;1.00;;;;;;;;;;4956882;28;20215;-87
2024/01/23 06:21:15;;;;;;;4.30;1.13;;;;;;;;;;4956876;28;20186;-89
2024/01/23 06:24:19;;;;;;;6.03;1.87;;;;;;;;;;4966867;28;20187;-87
2024/01/23 06:27:23;;;;;;;5.30;1.93;;;;;;;;;;4966309;28;20183;-87
2024/01/23 06:30:29;;;;;;;3.80;1.13;;;;;;;;;;4966253;28;20187;-87
2024/01/23 06:33:34;;;;;;;3.93;1.10;;;;;;;;;;4944865;28;20186;-88
2024/01/23 06:36:38;;;;;;;7.73;1.50;;;;;;;;;;4955010;28;20226;-88
2024/01/23 06:39:43;;;;;;;7.20;1.20;;;;;;;;;;4944468;28;20175;-88
2024/01/23 06:42:46;;;;;;;4.67;1.20;;;;;;;;;;4954281;28;20190;-88
2024/01/23 06:45:51;;;;;;;4.97;1.33;;;;;;;;;;4954739;28;20687;-88
2024/01/23 06:48:55;;;;;;;4.63;1.20;;;;;;;;;;4954599;28;20182;-87
2024/01/23 06:52:04;;;;;;;7.67;1.43;;;;;;;;;;4944378;28;20526;-87
2024/01/23 06:55:11;;;;;;;6.17;0.97;;;;;;;;;;4965628;28;20644;-86
2024/01/23 06:58:16;;;;;;;5.27;1.37;;;;;;;;;;4955734;28;20222;-86
2024/01/23 07:01:20;;;;;;;21.43;9.93;;;;;;;;;;4966662;28;20541;-86
2024/01/23 07:04:25;;;;;;;8.17;1.73;;;;;;;;;;4967224;28;20190;-86
2024/01/23 07:07:29;;;;;;;4.63;1.40;;;;;;;;;;4955604;28;20183;-87
2024/01/23 07:10:35;;;;;;;4.73;1.50;;;;;;;;;;4955104;28;20191;-86
2024/01/23 07:13:39;;;;;;;5.97;1.27;;;;;;;;;;4955723;28;20187;-87
2024/01/23 07:16:44;;;;;;;26.80;10.80;;;;;;;;;;4955451;28;20226;-84
2024/01/23 07:19:54;;;;;;;22.27;9.83;;;;;;;;;;4957337;28;20183;-82
2024/01/23 07:27:23;;;;;;;8.00;1.57;;;;;;;;;;4967032;28;20183;-88
2024/01/23 07:41:09;;;;;;;2.77;1.30;;;;;;;;;;4924955;29;20189;-86
2024/01/23 07:44:14;;;;;;;2.57;1.33;;;;;;;;;;4918772;29;20678;-85
2024/01/23 07:47:18;;;;;;;3.53;1.10;;;;;;;;;;4908667;29;20536;-88
2024/01/23 07:50:48;;;;;;;6.03;1.40;;;;;;;;;;4908051;29;20699;-87
2024/01/23 07:53:52;;;;;;;3.20;1.27;;;;;;;;;;4885976;29;20185;-88
2024/01/23 07:56:57;;;;;;;2.93;1.10;;;;;;;;;;4907492;29;20234;-87
2024/01/23 08:00:02;;;;;;;5.70;2.23;;;;;;;;;;4885940;29;20189;-87
2024/01/23 08:03:08;;;;;;;4.47;1.60;;;;;;;;;;4955452;28;20195;-87
2024/01/23 08:06:13;;;;;;;2.97;1.10;;;;;;;;;;4955338;28;20687;-87
2024/01/23 08:09:19;;;;;;;2.27;1.27;;;;;;;;;;4947363;28;20186;-89
2024/01/23 08:12:24;;;;;;;5.13;1.23;;;;;;;;;;4957766;28;20211;-87
2024/01/23 08:15:30;;;;;;;4.57;1.50;;;;;;;;;;4946910;28;20227;-87
2024/01/23 08:18:33;;;;;;;4.27;1.60;;;;;;;;;;4946530;28;20215;-87
2024/01/23 08:21:38;;;;;;;1.83;1.10;;;;;;;;;;4946594;28;20218;-89
2024/01/23 08:25:00;;;;;;;1.97;1.20;;;;;;;;;;4957798;28;20178;-88
2024/01/23 08:28:04;;;;;;;5.00;0.90;;;;;;;;;;4958394;28;20184;-86
2024/01/23 08:31:11;;;;;;;6.17;1.83;;;;;;;;;;4969372;28;20190;-85
2024/01/23 08:34:15;;;;;;;4.70;1.53;;;;;;;;;;4948200;28;20186;-86
2024/01/23 08:37:20;;;;;;;4.77;1.90;;;;;;;;;;4972296;28;20187;-86
2024/01/23 08:40:54;;;;;;;4.43;1.47;;;;;;;;;;4957382;28;20191;-89
2024/01/23 08:44:02;;;;;;;8.43;1.50;;;;;;;;;;4946752;28;20636;-89
2024/01/23 08:47:08;;;;;;;5.73;1.40;;;;;;;;;;4946310;28;20223;-89
2024/01/23 08:50:12;;;;;;;2.87;1.00;;;;;;;;;;4967806;28;20178;-89
2024/01/23 08:53:17;;;;;;;3.73;1.30;;;;;;;;;;4945881;28;20556;-88
2024/01/23 08:56:23;;;;;;;6.30;1.47;;;;;;;;;;4945635;28;20230;-88
2024/01/23 08:59:28;;;;;;;2.77;1.00;;;;;;;;;;4967687;28;20227;-92
2024/01/23 09:02:33;;;;;;;7.23;1.77;;;;;;;;;;4967596;28;20186;-89
2024/01/23 09:05:37;;;;;;;5.43;1.73;;;;;;;;;;4967866;28;20560;-89
2024/01/23 09:08:44;;;;;;;5.83;1.50;;;;;;;;;;4956394;28;20183;-90
2024/01/23 09:11:48;;;;;;;7.10;2.50;;;;;;;;;;4967221;28;20191;-89
2024/01/23 09:14:53;;;;;;;3.90;1.30;;;;;;;;;;4956056;28;20186;-89
2024/01/23 09:17:57;;;;;;;3.67;1.73;;;;;;;;;;4956183;28;20298;-88
2024/01/23 09:21:03;;;;;;;5.73;1.23;;;;;;;;;;4956533;28;20195;-89
2024/01/23 09:24:07;;;;;;;7.03;1.60;;;;;;;;;;4956057;28;20187;-88
2024/01/23 09:27:11;;;;;;;4.27;1.20;;;;;;;;;;4957826;28;20222;-83
2024/01/23 09:30:16;;;;;;;8.27;1.10;;;;;;;;;;4968397;28;20179;-86
2024/01/23 09:33:20;;;;;;;5.40;1.10;;;;;;;;;;4968302;28;20179;-86
2024/01/23 09:36:25;;;;;;;3.50;0.80;;;;;;;;;;4968227;28;20218;-86
2024/01/23 09:39:29;;;;;;;3.53;1.40;;;;;;;;;;4967715;28;20215;-86
2024/01/23 09:42:37;;;;;;;6.07;1.30;;;;;;;;;;4968209;28;20186;-86
2024/01/23 09:45:43;;;;;;;3.73;1.10;;;;;;;;;;4956668;28;20226;-86
2024/01/23 09:48:47;;;;;;;6.10;1.30;;;;;;;;;;4956451;28;20187;-87
2024/01/23 09:51:54;;;;;;;8.57;1.70;;;;;;;;;;4967712;28;20186;-87
2024/01/23 09:54:58;;;;;;;3.17;1.50;;;;;;;;;;4967768;28;20556;-87
2024/01/23 09:58:03;;;;;;;4.10;1.20;;;;;;;;;;4967391;28;20219;-86
2024/01/23 10:01:07;;;;;;;5.73;1.13;;;;;;;;;;4979922;28;20190;-86
2024/01/23 10:04:15;;;;;;;3.87;1.50;;;;;;;;;;4967379;28;20183;-87
2024/01/23 10:07:19;;;;;;;6.47;1.93;;;;;;;;;;4977690;28;20191;-87
2024/01/23 10:10:25;;;;;;;5.53;1.70;;;;;;;;;;4957749;28;20183;-87
2024/01/23 10:13:29;;;;;;;4.30;1.17;;;;;;;;;;4946521;28;20183;-86
2024/01/23 10:16:33;;;;;;;6.73;1.07;;;;;;;;;;4981375;28;20214;-86
2024/01/23 10:19:37;;;;;;;7.80;1.00;;;;;;;;;;4979866;28;20226;-86
2024/01/23 10:22:45;;;;;;;2.90;1.00;;;;;;;;;;4980504;28;20214;-86
2024/01/23 10:25:49;;;;;;;4.57;2.20;;;;;;;;;;4968635;28;20223;-86
2024/01/23 10:28:53;;;;;;;3.73;1.33;;;;;;;;;;4968134;28;20648;-86
2024/01/23 10:31:57;;;;;;;3.73;1.00;;;;;;;;;;4967810;28;20191;-80
2024/01/23 10:35:03;;;;;;;2.93;0.93;;;;;;;;;;4978778;28;20183;-80
2024/01/23 10:38:10;;;;;;;2.60;0.90;;;;;;;;;;4979338;28;20186;-82
2024/01/23 10:41:16;;;;;;;3.03;0.90;;;;;;;;;;4968758;28;20648;-82
2024/01/23 10:44:23;;;;;;;2.07;0.90;;;;;;;;;;4968508;28;20179;-82
2024/01/23 10:47:28;;;;;;;2.53;1.10;;;;;;;;;;4968297;28;20187;-82
2024/01/23 10:50:34;;;;;;;5.47;1.00;;;;;;;;;;4967542;28;20306;-81
2024/01/23 10:54:01;;;;;;;2.87;1.17;;;;;;;;;;4978351;28;20187;-81
2024/01/23 10:57:07;;;;;;;5.23;0.90;;;;;;;;;;4978069;28;20222;-83
2024/01/23 11:00:15;;;;;;;7.50;1.23;;;;;;;;;;4978879;28;20210;-82
2024/01/23 11:03:20;;;;;;;3.73;0.93;;;;;;;;;;4979714;28;20538;-81
2024/01/23 11:06:29;;;;;;;4.00;0.90;;;;;;;;;;4979711;28;20222;-84
2024/01/23 11:09:40;;;;;;;6.40;1.10;;;;;;;;;;4967450;28;20183;-82
2024/01/23 11:12:53;;;;;;;2.83;0.90;;;;;;;;;;4979750;28;20202;-82
2024/01/23 11:16:03;;;;;;;3.97;2.37;;;;;;;;;;4979251;28;20222;-82
2024/01/23 11:19:07;;;;;;;2.40;1.27;;;;;;;;;;4967715;28;20219;-83
2024/01/23 11:22:12;;;;;;;5.10;1.23;;;;;;;;;;4967244;28;20209;-83
2024/01/23 11:25:19;;;;;;;4.17;1.50;;;;;;;;;;4979758;28;20226;-83
2024/01/23 11:28:25;;;;;;;6.97;1.40;;;;;;;;;;4978071;28;20641;-82
2024/01/23 11:31:40;;;;;;;9.00;1.83;;;;;;;;;;4978490;28;20183;-83
2024/01/23 11:34:44;;;;;;;5.77;2.00;;;;;;;;;;4955708;28;20191;-81
2024/01/23 11:37:51;;;;;;;7.53;1.80;;;;;;;;;;4966162;28;20183;-82
2024/01/23 11:40:56;;;;;;;5.37;1.40;;;;;;;;;;4968118;28;20187;-81
2024/01/23 11:44:00;;;;;;;4.67;1.40;;;;;;;;;;4983125;28;20179;-83
2024/01/23 11:47:05;;;;;;;2.97;1.53;;;;;;;;;;4969774;28;20222;-82
2024/01/23 11:50:09;;;;;;;4.90;1.37;;;;;;;;;;4981935;28;20187;-82
2024/01/23 11:53:14;;;;;;;3.53;1.03;;;;;;;;;;4982287;28;20190;-81
2024/01/23 11:56:20;;;;;;;2.43;0.93;;;;;;;;;;4970086;28;20226;-82
2024/01/23 11:59:25;;;;;;;4.50;1.07;;;;;;;;;;4980624;28;20222;-81
2024/01/23 12:02:30;;;;;;;5.70;1.27;;;;;;;;;;4969897;28;20547;-81
2024/01/23 12:05:36;;;;;;;2.63;0.97;;;;;;;;;;4981929;28;20218;-81
2024/01/23 12:08:42;;;;;;;6.40;1.13;;;;;;;;;;4981511;28;20655;-81
2024/01/23 12:11:47;;;;;;;2.30;1.07;;;;;;;;;;4981457;28;20183;-80
2024/01/23 12:14:51;;;;;;;2.67;1.30;;;;;;;;;;4969397;28;20191;-82
2024/01/23 12:17:55;;;;;;;6.73;2.47;;;;;;;;;;4969881;28;20191;-83
2024/01/23 12:21:00;;;;;;;6.70;1.87;;;;;;;;;;4969580;28;20187;-82
2024/01/23 12:24:04;;;;;;;5.87;1.60;;;;;;;;;;4982677;28;20183;-83
2024/01/23 12:27:09;;;;;;;5.40;2.77;;;;;;;;;;4959129;28;20222;-83
2024/01/23 12:30:14;;;;;;;4.43;1.80;;;;;;;;;;4969244;28;20187;-81
2024/01/23 12:33:18;;;;;;;7.70;1.80;;;;;;;;;;4970378;28;20190;-82
2024/01/23 12:36:23;;;;;;;4.97;1.20;;;;;;;;;;4971104;28;20703;-84
2024/01/23 12:39:28;;;;;;;8.60;2.60;;;;;;;;;;4981826;28;20555;-85
2024/01/23 12:42:32;;;;;;;6.17;2.40;;;;;;;;;;4970367;28;20644;-83
2024/01/23 12:45:38;;;;;;;6.83;1.50;;;;;;;;;;4972475;28;20222;-86
2024/01/23 12:48:42;;;;;;;7.10;1.70;;;;;;;;;;4975383;28;20187;-86
2024/01/23 12:51:49;;;;;;;5.93;3.07;;;;;;;;;;4974404;28;20187;-86
2024/01/23 12:54:54;;;;;;;8.77;2.53;;;;;;;;;;4974267;28;20186;-85
2024/01/23 12:57:59;;;;;;;6.33;1.60;;;;;;;;;;4976169;28;20187;-84
2024/01/23 13:01:03;;;;;;;9.70;1.93;;;;;;;;;;4964168;28;20191;-85
2024/01/23 13:04:07;;;;;;;7.90;2.30;;;;;;;;;;4964114;28;20194;-85
2024/01/23 13:07:11;;;;;;;4.73;1.63;;;;;;;;;;4974792;28;20222;-85
2024/01/23 13:10:16;;;;;;;2.87;1.53;;;;;;;;;;4975399;28;20179;-84
2024/01/23 13:13:21;;;;;;;5.03;2.03;;;;;;;;;;4986759;28;20179;-84
2024/01/23 13:16:25;;;;;;;5.37;2.30;;;;;;;;;;4976038;28;20599;-85
2024/01/23 13:19:30;;;;;;;5.73;1.47;;;;;;;;;;4976426;28;20219;-84
2024/01/23 13:22:34;;;;;;;4.80;2.17;;;;;;;;;;4955529;28;20214;-84
2024/01/23 13:25:44;;;;;;;4.50;2.10;;;;;;;;;;4966403;28;20235;-84
2024/01/23 13:28:48;;;;;;;4.97;1.43;;;;;;;;;;4964300;28;20194;-83
2024/01/23 13:31:54;;;;;;;5.50;1.70;;;;;;;;;;4963753;28;20191;-83
2024/01/23 13:34:59;;;;;;;4.17;1.57;;;;;;;;;;4975349;28;20191;-84
2024/01/23 13:38:03;;;;;;;4.30;1.13;;;;;;;;;;4953135;28;20190;-83
2024/01/23 13:41:08;;;;;;;4.97;1.10;;;;;;;;;;4975668;28;20584;-84
2024/01/23 13:44:12;;;;;;;5.43;1.37;;;;;;;;;;4986968;28;20195;-83
2024/01/23 13:47:17;;;;;;;5.33;1.43;;;;;;;;;;4974673;28;20219;-84
2024/01/23 13:50:22;;;;;;;5.43;1.50;;;;;;;;;;4985327;28;20183;-83
2024/01/23 13:53:26;;;;;;;4.87;1.37;;;;;;;;;;4962888;28;20183;-83
2024/01/23 13:56:34;;;;;;;4.77;2.43;;;;;;;;;;4974747;28;20226;-85
2024/01/23 13:59:38;;;;;;;3.67;1.53;;;;;;;;;;4974916;28;20219;-83
2024/01/23 14:02:43;;;;;;;5.47;1.60;;;;;;;;;;4973930;28;20183;-83
2024/01/23 14:05:47;;;;;;;3.53;1.40;;;;;;;;;;4972253;28;20226;-84
2024/01/23 14:08:52;;;;;;;6.93;1.43;;;;;;;;;;4963019;28;20186;-83
2024/01/23 14:11:57;;;;;;;3.97;1.73;;;;;;;;;;4973752;28;20206;-84
2024/01/23 14:15:04;;;;;;;5.67;1.70;;;;;;;;;;4973225;28;20199;-84
2024/01/23 14:18:08;;;;;;;7.03;2.40;;;;;;;;;;4972649;28;20187;-84
2024/01/23 14:21:12;;;;;;;8.00;3.23;;;;;;;;;;4969476;28;20214;-86
2024/01/23 14:24:24;;;;;;;9.03;2.60;;;;;;;;;;4949290;28;20187;-87
2024/01/23 14:27:44;;;;;;;5.50;2.03;;;;;;;;;;4949497;28;20179;-86
2024/01/23 14:30:51;;;;;;;8.30;2.40;;;;;;;;;;4971223;28;20179;-86
2024/01/23 14:33:59;;;;;;;8.47;3.40;;;;;;;;;;4970910;28;20190;-86
2024/01/23 14:37:04;;;;;;;14.40;6.67;;;;;;;;;;4977462;28;20222;-86
2024/01/23 14:40:10;;;;;;;16.07;8.97;;;;;;;;;;4985009;28;20222;-85
2024/01/23 14:43:14;;;;;;;5.87;2.47;;;;;;;;;;4972407;28;20182;-85
2024/01/23 14:46:18;;;;;;;7.03;2.20;;;;;;;;;;4948867;28;20252;-85
2024/01/23 14:49:22;;;;;;;5.20;1.50;;;;;;;;;;4971987;28;20183;-85
2024/01/23 14:52:28;;;;;;;5.90;2.57;;;;;;;;;;4970375;28;20187;-85
2024/01/23 14:55:34;;;;;;;7.80;2.20;;;;;;;;;;4971714;28;20222;-86
2024/01/23 14:58:39;;;;;;;5.17;2.20;;;;;;;;;;4960699;28;20195;-85
2024/01/23 15:01:43;;;;;;;4.47;1.93;;;;;;;;;;4949295;28;20176;-85
2024/01/23 15:04:47;;;;;;;7.37;2.90;;;;;;;;;;4970965;28;20277;-86
2024/01/23 15:07:54;;;;;;;9.23;2.77;;;;;;;;;;4972055;28;20190;-85
2024/01/23 15:10:58;;;;;;;4.93;2.03;;;;;;;;;;4970535;28;20179;-86
2024/01/23 15:14:03;;;;;;;4.83;2.20;;;;;;;;;;4970832;28;20186;-85
2024/01/23 15:17:07;;;;;;;4.07;1.83;;;;;;;;;;4986707;28;20226;-85
2024/01/23 15:20:12;;;;;;;6.00;1.77;;;;;;;;;;4963735;28;20219;-85
2024/01/23 15:23:43;;;;;;;4.97;1.67;;;;;;;;;;4973293;28;20214;-85
2024/01/23 15:26:47;;;;;;;5.80;1.23;;;;;;;;;;4963496;28;20211;-84
2024/01/23 15:29:51;;;;;;;6.37;1.70;;;;;;;;;;4974736;28;20183;-86
2024/01/23 15:32:59;;;;;;;6.80;1.40;;;;;;;;;;4962467;28;20187;-84
2024/01/23 15:36:05;;;;;;;5.97;1.87;;;;;;;;;;4974651;28;20218;-84
2024/01/23 15:39:10;;;;;;;8.33;3.37;;;;;;;;;;4973714;28;20290;-85
2024/01/23 15:42:15;;;;;;;4.70;2.53;;;;;;;;;;4985111;28;20179;-84
2024/01/23 15:45:20;;;;;;;6.57;2.53;;;;;;;;;;4951090;28;20226;-85
2024/01/23 15:48:24;;;;;;;6.10;2.67;;;;;;;;;;4973289;28;20190;-86
2024/01/23 15:51:28;;;;;;;6.33;1.80;;;;;;;;;;4962404;28;20187;-85
2024/01/23 15:54:33;;;;;;;8.43;2.23;;;;;;;;;;4973103;28;20187;-86
2024/01/23 15:57:37;;;;;;;9.60;4.10;;;;;;;;;;4972886;28;20190;-85
2024/01/23 16:00:42;;;;;;;8.57;2.77;;;;;;;;;;4983760;28;20214;-86
2024/01/23 16:03:49;;;;;;;7.90;2.33;;;;;;;;;;4962336;28;20191;-86
2024/01/23 16:06:54;;;;;;;6.13;1.93;;;;;;;;;;4954013;28;20222;-85
2024/01/23 16:09:58;;;;;;;4.97;1.87;;;;;;;;;;4953129;28;20179;-86
2024/01/23 16:13:03;;;;;;;9.53;2.43;;;;;;;;;;4964259;28;20544;-86
2024/01/23 16:16:09;;;;;;;3.47;1.70;;;;;;;;;;4961191;28;20227;-85
2024/01/23 16:19:13;;;;;;;7.97;1.63;;;;;;;;;;4972422;28;20560;-85
2024/01/23 16:22:17;;;;;;;4.97;1.70;;;;;;;;;;4972891;28;20688;-86
2024/01/23 16:25:25;;;;;;;7.17;1.53;;;;;;;;;;4984866;28;20222;-86
2024/01/23 16:28:29;;;;;;;7.13;1.97;;;;;;;;;;4961384;28;20191;-86
2024/01/23 16:31:33;;;;;;;7.93;1.80;;;;;;;;;;4972554;28;20191;-85
2024/01/23 16:34:38;;;;;;;10.33;2.20;;;;;;;;;;4963568;28;20187;-86
2024/01/23 16:37:42;;;;;;;9.60;3.87;;;;;;;;;;4960457;28;20187;-88
2024/01/23 16:40:48;;;;;;;8.67;2.27;;;;;;;;;;4957825;28;20218;-87
2024/01/23 16:43:52;;;;;;;7.33;1.90;;;;;;;;;;4960134;28;20178;-86
2024/01/23 16:46:56;;;;;;;8.47;2.27;;;;;;;;;;4970108;28;20227;-86
2024/01/23 16:50:01;;;;;;;10.07;2.30;;;;;;;;;;4948627;28;20195;-87
2024/01/23 16:53:05;;;;;;;5.70;2.03;;;;;;;;;;4971485;28;20190;-87
2024/01/23 16:56:09;;;;;;;6.60;2.20;;;;;;;;;;4959802;28;20231;-87
2024/01/23 16:59:13;;;;;;;11.40;4.07;;;;;;;;;;4969538;28;20234;-87
2024/01/23 17:02:17;;;;;;;6.33;2.60;;;;;;;;;;4959111;28;20187;-87
2024/01/23 17:05:25;;;;;;;13.37;3.20;;;;;;;;;;4957538;28;20222;-87
2024/01/23 17:08:30;;;;;;;5.50;3.20;;;;;;;;;;4947178;28;20191;-86
2024/01/23 17:11:34;;;;;;;10.30;3.30;;;;;;;;;;4970137;28;20186;-86
2024/01/23 17:14:40;;;;;;;5.83;3.27;;;;;;;;;;4959349;28;20191;-86
2024/01/23 17:17:44;;;;;;;7.30;2.33;;;;;;;;;;4959957;28;20195;-86
2024/01/23 17:20:48;;;;;;;4.70;1.70;;;;;;;;;;4960019;28;20219;-87
2024/01/23 17:23:53;;;;;;;5.87;1.37;;;;;;;;;;4957849;28;20195;-86
2024/01/23 17:26:57;;;;;;;6.80;1.50;;;;;;;;;;4957739;28;20226;-86
2024/01/23 17:30:03;;;;;;;6.17;1.83;;;;;;;;;;4958593;28;20187;-86
2024/01/23 17:33:09;;;;;;;6.67;1.70;;;;;;;;;;4968675;28;20183;-87
2024/01/23 17:36:14;;;;;;;7.63;2.13;;;;;;;;;;4955639;28;20227;-87
2024/01/23 17:39:18;;;;;;;11.20;3.53;;;;;;;;;;4945277;28;20286;-87
2024/01/23 17:42:22;;;;;;;26.53;14.87;;;;;;;;;;4978215;28;20210;-87
2024/01/23 17:45:26;;;;;;;8.97;2.87;;;;;;;;;;4978547;28;20226;-86
2024/01/23 17:48:31;;;;;;;6.70;1.80;;;;;;;;;;4979215;28;20190;-85
2024/01/23 17:51:35;;;;;;;3.73;2.00;;;;;;;;;;4967952;28;20182;-86
2024/01/23 17:54:39;;;;;;;6.40;1.40;;;;;;;;;;4967723;28;20187;-86
2024/01/23 17:57:43;;;;;;;5.37;1.50;;;;;;;;;;4967284;28;20203;-86
2024/01/23 18:00:49;;;;;;;12.60;3.63;;;;;;;;;;4967427;28;20211;-87
2024/01/23 18:03:53;;;;;;;8.17;3.10;;;;;;;;;;4966020;28;20179;-85
2024/01/23 18:06:58;;;;;;;8.03;4.37;;;;;;;;;;4968238;28;20226;-85
2024/01/23 18:10:03;;;;;;;9.13;3.07;;;;;;;;;;4968815;28;20179;-86
2024/01/23 18:13:08;;;;;;;8.60;2.50;;;;;;;;;;4966551;28;20191;-85
2024/01/23 18:16:12;;;;;;;14.27;8.17;;;;;;;;;;4977342;28;20226;-85
2024/01/23 18:19:18;;;;;;;26.80;14.60;;;;;;;;;;4956834;28;20183;-84
2024/01/23 18:22:22;;;;;;;10.50;3.63;;;;;;;;;;4971243;28;20230;-87
2024/01/23 18:25:26;;;;;;;8.80;2.60;;;;;;;;;;4965595;28;20230;-87
2024/01/23 18:28:30;;;;;;;4.63;2.07;;;;;;;;;;4966472;28;20197;-87
2024/01/23 18:31:36;;;;;;;7.57;2.03;;;;;;;;;;4955585;28;20182;-87
2024/01/23 18:34:41;;;;;;;7.20;2.80;;;;;;;;;;4965896;28;20644;-87
2024/01/23 18:37:46;;;;;;;9.00;4.50;;;;;;;;;;4966208;28;20182;-86
2024/01/23 18:40:50;;;;;;;9.10;2.73;;;;;;;;;;4977171;28;20222;-87
2024/01/23 18:43:55;;;;;;;11.67;2.20;;;;;;;;;;4964953;28;20186;-86
2024/01/23 18:46:59;;;;;;;9.33;2.73;;;;;;;;;;4965714;28;20231;-84